createdAt,value
2023-09-18T00:00:17.497Z,5.53
2023-09-18T00:02:44.367Z,4.15
2023-09-18T00:05:11.030Z,8.80
2023-09-18T00:07:37.929Z,6.20
2023-09-18T00:10:04.640Z,4.35
2023-09-18T00:12:31.079Z,8.02
2023-09-18T00:14:57.521Z,5.50
2023-09-18T00:17:25.147Z,4.00
2023-09-18T00:19:52.883Z,5.18
2023-09-18T00:22:19.499Z,4.70
2023-09-18T00:24:46.041Z,7.40
2023-09-18T00:27:12.486Z,4.10
2023-09-18T00:29:38.934Z,3.35
2023-09-18T00:32:05.939Z,10.07
2023-09-18T00:34:33.166Z,8.13
2023-09-18T00:37:00.347Z,7.75
2023-09-18T00:39:28.008Z,4.80
2023-09-18T00:41:55.302Z,5.75
2023-09-18T00:44:23.150Z,4.00
2023-09-18T00:46:50.816Z,7.00
2023-09-18T00:49:19.037Z,4.90
2023-09-18T00:51:45.873Z,6.80
2023-09-18T00:54:12.894Z,7.55
2023-09-18T00:56:39.654Z,5.38
2023-09-18T00:59:06.140Z,5.30
2023-09-18T01:01:33.094Z,6.20
2023-09-18T01:04:00.703Z,5.70
2023-09-18T01:06:31.572Z,7.00
2023-09-18T01:08:58.105Z,8.73
2023-09-18T01:11:37.369Z,6.25
2023-09-18T01:14:14.616Z,7.05
2023-09-18T01:16:47.732Z,6.18
2023-09-18T01:19:14.208Z,7.05
2023-09-18T01:21:40.700Z,7.35
2023-09-18T01:24:07.303Z,8.85
2023-09-18T01:26:33.779Z,7.88
2023-09-18T01:29:00.258Z,5.95
2023-09-18T01:31:27.569Z,5.78
2023-09-18T01:33:55.145Z,8.45
2023-09-18T01:36:22.061Z,7.72
2023-09-18T01:38:51.270Z,8.77
2023-09-18T01:41:18.157Z,7.88
2023-09-18T01:43:44.787Z,11.07
2023-09-18T01:46:11.570Z,8.27
2023-09-18T01:48:39.067Z,7.22
2023-09-18T01:51:05.520Z,6.00
2023-09-18T01:53:32.347Z,6.85
2023-09-18T01:55:58.953Z,6.80
2023-09-18T01:58:25.410Z,6.13
2023-09-18T02:00:52.434Z,5.43
2023-09-18T02:03:30.923Z,6.93
2023-09-18T02:06:11.394Z,7.07
2023-09-18T02:08:38.156Z,7.78
2023-09-18T02:11:05.754Z,7.95
2023-09-18T02:13:32.238Z,7.60
2023-09-18T02:15:58.812Z,6.72
2023-09-18T02:18:25.261Z,6.43
2023-09-18T02:20:51.720Z,6.68
2023-09-18T02:23:19.662Z,8.80
2023-09-18T02:25:46.216Z,5.45
2023-09-18T02:28:12.766Z,7.82
2023-09-18T02:30:39.736Z,10.07
2023-09-18T02:33:06.281Z,6.50
2023-09-18T02:35:32.839Z,5.93
2023-09-18T02:38:00.976Z,7.38
2023-09-18T02:40:27.476Z,6.40
2023-09-18T02:42:53.940Z,6.88
2023-09-18T02:45:20.406Z,6.85
2023-09-18T02:47:46.907Z,6.63
2023-09-18T02:50:13.531Z,7.90
2023-09-18T02:52:40.048Z,7.75
2023-09-18T02:55:06.746Z,4.45
2023-09-18T02:57:33.219Z,8.13
2023-09-18T02:59:59.828Z,5.85
2023-09-18T03:02:26.403Z,6.68
2023-09-18T03:04:53.073Z,8.00
2023-09-18T03:07:19.518Z,8.18
2023-09-18T03:09:45.975Z,7.32
2023-09-18T03:12:12.424Z,10.10
2023-09-18T03:14:39.096Z,10.07
2023-09-18T03:17:05.869Z,6.82
2023-09-18T03:19:32.451Z,6.15
2023-09-18T03:21:58.936Z,6.70
2023-09-18T03:24:25.485Z,7.15
2023-09-18T03:26:51.927Z,6.40
2023-09-18T03:29:18.440Z,6.85
2023-09-18T03:31:45.024Z,6.70
2023-09-18T03:34:11.578Z,7.03
2023-09-18T03:36:38.501Z,6.47
2023-09-18T03:39:06.162Z,6.97
2023-09-18T03:41:35.465Z,6.28
2023-09-18T03:44:02.266Z,7.70
2023-09-18T03:46:28.757Z,7.22
2023-09-18T03:48:56.375Z,6.32
2023-09-18T03:51:22.959Z,7.60
2023-09-18T03:53:49.460Z,7.75
2023-09-18T03:56:16.635Z,6.43
2023-09-18T03:58:43.239Z,6.93
2023-09-18T04:01:09.723Z,7.30
2023-09-18T04:03:36.472Z,9.05
2023-09-18T04:06:04.349Z,7.57
2023-09-18T04:08:30.891Z,7.93
2023-09-18T04:10:59.045Z,6.20
2023-09-18T04:13:25.960Z,7.70
2023-09-18T04:15:55.539Z,7.55
2023-09-18T04:18:22.024Z,7.32
2023-09-18T04:20:48.520Z,7.50
2023-09-18T04:23:27.260Z,7.60
2023-09-18T04:25:55.272Z,6.95
2023-09-18T04:28:23.509Z,7.32
2023-09-18T04:30:50.316Z,9.45
2023-09-18T04:33:17.767Z,7.13
2023-09-18T04:35:45.376Z,6.63
2023-09-18T04:38:12.203Z,7.25
2023-09-18T04:40:41.778Z,6.90
2023-09-18T04:43:08.742Z,7.22
2023-09-18T04:45:35.303Z,6.82
2023-09-18T04:48:01.857Z,7.50
2023-09-18T04:50:28.326Z,5.82
2023-09-18T04:52:57.073Z,9.43
2023-09-18T04:55:23.544Z,6.45
2023-09-18T04:57:50.248Z,7.05
2023-09-18T05:00:18.339Z,6.30
2023-09-18T05:02:45.621Z,7.05
2023-09-18T05:05:12.830Z,7.07
2023-09-18T05:07:39.445Z,7.70
2023-09-18T05:10:06.201Z,7.00
2023-09-18T05:12:33.159Z,8.02
2023-09-18T05:14:59.889Z,7.78
2023-09-18T05:17:44.819Z,7.07
2023-09-18T05:20:17.297Z,6.55
2023-09-18T05:22:44.546Z,6.45
2023-09-18T05:25:11.468Z,5.40
2023-09-18T05:27:45.407Z,7.85
2023-09-18T05:30:26.257Z,5.20
2023-09-18T05:32:52.779Z,8.32
2023-09-18T05:35:19.273Z,7.78
2023-09-18T05:37:45.798Z,6.80
2023-09-18T05:40:14.047Z,6.95
2023-09-18T05:42:46.738Z,7.65
2023-09-18T05:45:14.418Z,7.57
2023-09-18T05:47:41.089Z,9.05
2023-09-18T05:50:09.106Z,8.43
2023-09-18T05:52:36.166Z,6.93
2023-09-18T05:55:06.276Z,10.98
2023-09-18T05:57:32.965Z,5.82
2023-09-18T05:59:59.648Z,7.85
2023-09-18T06:02:26.387Z,12.02
2023-09-18T06:05:01.255Z,13.20
2023-09-18T06:07:28.824Z,11.15
2023-09-18T06:09:55.621Z,9.25
2023-09-18T06:12:25.874Z,9.30
2023-09-18T06:14:52.394Z,5.03
2023-09-18T06:17:19.268Z,8.13
2023-09-18T06:19:46.692Z,7.10
2023-09-18T06:22:14.134Z,11.13
2023-09-18T06:24:41.016Z,11.18
2023-09-18T06:27:07.515Z,8.85
2023-09-18T06:29:35.475Z,5.78
2023-09-18T06:32:02.244Z,9.07
2023-09-18T06:34:31.431Z,11.20
2023-09-18T06:36:58.078Z,6.13
2023-09-18T06:39:25.619Z,7.03
2023-09-18T06:41:52.121Z,5.72
2023-09-18T06:44:18.706Z,7.72
2023-09-18T06:46:45.220Z,6.43
2023-09-18T06:49:11.819Z,6.32
2023-09-18T06:51:43.381Z,6.75
2023-09-18T06:54:10.581Z,7.10
2023-09-18T06:56:37.101Z,7.65
2023-09-18T06:59:03.685Z,6.43
2023-09-18T07:01:31.377Z,6.90
2023-09-18T07:03:58.194Z,6.18
2023-09-18T07:06:24.834Z,5.43
2023-09-18T07:08:51.613Z,6.65
2023-09-18T07:11:18.989Z,7.22
2023-09-18T07:13:45.688Z,7.20
2023-09-18T07:16:12.581Z,5.45
2023-09-18T07:18:39.189Z,4.43
2023-09-18T07:21:05.882Z,4.97
2023-09-18T07:23:32.596Z,6.47
2023-09-18T07:25:59.186Z,7.07
2023-09-18T07:28:26.386Z,5.53
2023-09-18T07:30:52.943Z,6.70
2023-09-18T07:33:21.386Z,6.07
2023-09-18T07:35:54.966Z,7.50
2023-09-18T07:38:21.508Z,6.95
2023-09-18T07:40:48.356Z,5.32
2023-09-18T07:43:15.240Z,7.28
2023-09-18T07:45:42.055Z,7.07
2023-09-18T07:48:09.343Z,5.55
2023-09-18T07:50:36.484Z,5.70
2023-09-18T07:53:03.773Z,6.93
2023-09-18T07:55:31.059Z,6.22
2023-09-18T07:57:59.300Z,6.18
2023-09-18T08:00:27.353Z,6.68
2023-09-18T08:02:59.813Z,7.32
2023-09-18T08:05:29.060Z,5.22
2023-09-18T08:08:00.333Z,6.72
2023-09-18T08:10:27.383Z,7.78
2023-09-18T08:12:54.343Z,5.72
2023-09-18T08:15:21.558Z,4.63
2023-09-18T08:17:49.633Z,4.13
2023-09-18T08:20:17.348Z,5.63
2023-09-18T08:22:45.264Z,6.03
2023-09-18T08:25:12.634Z,4.60
2023-09-18T08:27:45.051Z,6.00
2023-09-18T08:30:13.712Z,4.07
2023-09-18T08:32:41.805Z,3.70
2023-09-18T08:35:09.510Z,3.78
2023-09-18T08:37:36.342Z,5.13
2023-09-18T08:40:11.110Z,5.05
2023-09-18T08:42:45.683Z,7.82
2023-09-18T08:45:19.017Z,6.40
2023-09-18T08:47:46.649Z,4.15
2023-09-18T08:50:13.583Z,4.38
2023-09-18T08:52:41.061Z,5.22
2023-09-18T08:55:10.249Z,3.10
2023-09-18T08:57:38.743Z,3.85
2023-09-18T09:00:08.707Z,3.40
2023-09-18T09:02:35.872Z,3.45
2023-09-18T09:05:02.947Z,4.35
2023-09-18T09:07:32.209Z,3.80
2023-09-18T09:09:58.828Z,3.75
2023-09-18T09:12:54.636Z,4.03
2023-09-18T09:15:24.546Z,5.13
2023-09-18T09:17:53.479Z,3.67
2023-09-18T09:20:20.219Z,3.00
2023-09-18T09:22:47.160Z,5.43
2023-09-18T09:25:32.471Z,3.92
2023-09-18T09:28:00.846Z,4.65
2023-09-18T09:30:29.634Z,3.65
2023-09-18T09:32:58.080Z,4.80
2023-09-18T09:35:30.151Z,3.40
2023-09-18T09:38:12.335Z,3.00
2023-09-18T09:40:44.245Z,4.35
2023-09-18T09:43:14.441Z,3.60
2023-09-18T09:45:41.282Z,5.15
2023-09-18T09:48:09.236Z,3.53
2023-09-18T09:50:48.128Z,2.70
2023-09-18T09:53:15.718Z,3.22
2023-09-18T09:55:42.759Z,3.40
2023-09-18T09:58:12.185Z,3.25
2023-09-18T10:00:53.051Z,3.80
2023-09-18T10:03:21.907Z,4.63
2023-09-18T10:05:55.223Z,6.22
2023-09-18T10:08:27.644Z,5.07
2023-09-18T10:10:57.451Z,6.22
2023-09-18T10:13:32.945Z,8.35
2023-09-18T10:16:03.860Z,10.70
2023-09-18T10:19:12.735Z,4.28
2023-09-18T10:21:39.508Z,4.43
2023-09-18T10:24:24.733Z,8.07
2023-09-18T10:27:03.700Z,3.80
2023-09-18T10:29:32.263Z,4.75
2023-09-18T10:31:59.602Z,3.72
2023-09-18T10:34:26.548Z,4.85
2023-09-18T10:36:54.937Z,5.72
2023-09-18T10:39:24.904Z,6.35
2023-09-18T10:41:56.871Z,6.95
2023-09-18T10:44:24.212Z,4.47
2023-09-18T10:46:55.427Z,5.65
2023-09-18T10:49:22.983Z,3.50
2023-09-18T10:51:49.962Z,4.47
2023-09-18T10:54:20.984Z,7.13
2023-09-18T10:56:48.201Z,5.82
2023-09-18T10:59:16.370Z,4.45
2023-09-18T11:01:43.607Z,5.18
2023-09-18T11:04:11.607Z,5.70
2023-09-18T11:06:56.936Z,5.82
2023-09-18T11:09:27.632Z,4.72
2023-09-18T11:11:58.982Z,4.85
2023-09-18T11:14:57.383Z,3.17
2023-09-18T11:17:40.962Z,4.00
2023-09-18T11:20:10.921Z,4.03
2023-09-18T11:22:38.580Z,4.18
2023-09-18T11:25:38.563Z,5.53
2023-09-18T11:28:09.511Z,5.82
2023-09-18T11:30:37.543Z,6.95
2023-09-18T11:33:10.396Z,4.18
2023-09-18T11:35:38.689Z,3.67
2023-09-18T11:38:12.098Z,5.85
2023-09-18T11:40:40.455Z,4.57
2023-09-18T11:43:27.327Z,4.30
2023-09-18T11:45:56.709Z,5.13
2023-09-18T11:48:25.786Z,5.30
2023-09-18T11:50:53.822Z,5.00
2023-09-18T11:53:20.604Z,4.45
2023-09-18T11:55:47.872Z,4.05
2023-09-18T11:58:15.317Z,4.22
2023-09-18T12:00:48.368Z,4.35
2023-09-18T12:03:28.219Z,4.03
2023-09-18T12:05:58.100Z,3.92
2023-09-18T12:08:28.690Z,4.13
2023-09-18T12:10:55.859Z,4.68
2023-09-18T12:13:23.297Z,5.05
2023-09-18T12:15:50.589Z,5.18
2023-09-18T12:18:18.207Z,4.82
2023-09-18T12:20:49.061Z,3.95
2023-09-18T12:23:16.733Z,4.53
2023-09-18T12:25:46.736Z,3.35
2023-09-18T12:28:15.679Z,6.10
2023-09-18T12:30:42.490Z,4.45
2023-09-18T12:33:09.256Z,4.97
2023-09-18T12:35:35.875Z,4.20
2023-09-18T12:38:05.587Z,4.45
2023-09-18T12:40:35.322Z,4.15
2023-09-18T12:43:02.390Z,3.90
2023-09-18T12:45:30.985Z,3.47
2023-09-18T12:47:59.069Z,3.92
2023-09-18T12:50:26.857Z,6.72
2023-09-18T12:52:53.585Z,3.72
2023-09-18T12:55:25.303Z,3.17
2023-09-18T12:57:53.046Z,3.95
2023-09-18T13:00:24.266Z,3.78
2023-09-18T13:02:56.169Z,5.28
2023-09-18T13:05:27.549Z,3.42
2023-09-18T13:07:55.380Z,5.18
2023-09-18T13:10:24.856Z,4.22
2023-09-18T13:12:56.467Z,4.80
2023-09-18T13:15:30.897Z,3.85
2023-09-18T13:17:59.807Z,4.15
2023-09-18T13:20:29.778Z,4.70
2023-09-18T13:22:58.315Z,3.20
2023-09-18T13:25:35.931Z,4.22
2023-09-18T13:28:04.756Z,4.82
2023-09-18T13:30:32.605Z,3.47
2023-09-18T13:33:05.377Z,3.05
2023-09-18T13:35:32.019Z,4.38
2023-09-18T13:37:58.630Z,3.80
2023-09-18T13:40:25.310Z,3.28
2023-09-18T13:42:51.854Z,3.60
2023-09-18T13:45:19.032Z,4.65
2023-09-18T13:47:45.742Z,4.28
2023-09-18T13:50:14.352Z,4.43
2023-09-18T13:52:40.781Z,3.25
2023-09-18T13:55:07.477Z,3.63
2023-09-18T13:57:34.153Z,5.93
2023-09-18T14:00:01.634Z,3.22
2023-09-18T14:02:28.944Z,4.05
2023-09-18T14:04:55.810Z,3.22
2023-09-18T14:07:23.112Z,2.63
2023-09-18T14:09:49.837Z,5.63
2023-09-18T14:12:16.674Z,5.20
2023-09-18T14:14:45.001Z,3.05
2023-09-18T14:17:11.919Z,3.97
2023-09-18T14:19:39.442Z,2.88
2023-09-18T14:22:09.386Z,3.58
2023-09-18T14:24:36.382Z,3.08
2023-09-18T14:27:06.770Z,3.58
2023-09-18T14:29:33.440Z,3.58
2023-09-18T14:32:00.805Z,3.50
2023-09-18T14:34:27.663Z,3.85
2023-09-18T14:36:54.156Z,3.92
2023-09-18T14:39:20.604Z,3.45
2023-09-18T14:41:48.757Z,4.20
2023-09-18T14:44:15.298Z,3.05
2023-09-18T14:46:41.876Z,3.95
2023-09-18T14:49:08.553Z,3.60
2023-09-18T14:51:35.776Z,5.07
2023-09-18T14:54:05.337Z,4.53
2023-09-18T14:56:32.449Z,4.85
2023-09-18T14:58:59.212Z,4.53
2023-09-18T15:01:25.892Z,4.43
2023-09-18T15:03:52.477Z,4.50
2023-09-18T15:06:19.662Z,3.60
2023-09-18T15:08:46.241Z,4.70
2023-09-18T15:11:14.044Z,3.17
2023-09-18T15:13:40.869Z,4.15
2023-09-18T15:16:07.783Z,4.07
2023-09-18T15:18:34.571Z,5.38
2023-09-18T15:21:01.735Z,4.45
2023-09-18T15:23:28.846Z,4.15
2023-09-18T15:25:56.654Z,4.90
2023-09-18T15:28:24.363Z,5.80
2023-09-18T15:30:54.332Z,5.75
2023-09-18T15:33:23.654Z,3.38
2023-09-18T15:35:51.318Z,3.78
2023-09-18T15:38:17.932Z,3.50
2023-09-18T15:40:44.412Z,4.85
2023-09-18T15:43:11.333Z,4.70
2023-09-18T15:45:38.029Z,4.30
2023-09-18T15:48:05.772Z,3.58
2023-09-18T15:50:38.071Z,2.92
2023-09-18T15:53:05.044Z,4.57
2023-09-18T15:55:31.499Z,11.50
2023-09-18T15:57:57.992Z,15.05
2023-09-18T16:00:24.479Z,25.05
2023-09-18T16:02:52.906Z,26.45
2023-09-18T16:05:26.862Z,27.65
2023-09-18T16:08:03.530Z,36.47
2023-09-18T16:10:33.252Z,35.92
2023-09-18T16:12:59.896Z,34.60
2023-09-18T16:15:28.832Z,28.80
2023-09-18T16:17:56.303Z,32.33
2023-09-18T16:20:22.998Z,23.92
2023-09-18T16:22:49.485Z,23.02
2023-09-18T16:25:16.098Z,26.15
2023-09-18T16:27:43.946Z,29.77
2023-09-18T16:30:11.349Z,21.98
2023-09-18T16:32:39.495Z,26.20
2023-09-18T16:35:06.744Z,24.55
2023-09-18T16:37:34.011Z,24.25
2023-09-18T16:40:00.775Z,21.38
2023-09-18T16:42:27.677Z,21.05
2023-09-18T16:44:54.537Z,18.90
2023-09-18T16:47:22.410Z,24.17
2023-09-18T16:49:49.220Z,21.33
2023-09-18T16:52:15.804Z,21.83
2023-09-18T16:54:42.756Z,19.75
2023-09-18T16:57:09.225Z,20.10
2023-09-18T16:59:35.799Z,21.00
2023-09-18T17:02:02.385Z,16.60
2023-09-18T17:04:28.974Z,18.10
2023-09-18T17:06:55.566Z,19.10
2023-09-18T17:09:22.002Z,20.20
2023-09-18T17:11:48.532Z,12.00
2023-09-18T17:14:15.581Z,15.60
2023-09-18T17:16:42.057Z,15.70
2023-09-18T17:19:09.349Z,13.70
2023-09-18T17:21:35.822Z,18.60
2023-09-18T17:24:02.344Z,11.57
2023-09-18T17:26:28.990Z,11.18
2023-09-18T17:28:56.665Z,17.17
2023-09-18T17:31:23.448Z,15.52
2023-09-18T17:33:51.597Z,15.82
2023-09-18T17:36:18.219Z,12.07
2023-09-18T17:38:47.370Z,13.25
2023-09-18T17:41:14.075Z,13.30
2023-09-18T17:43:40.747Z,9.73
2023-09-18T17:46:07.334Z,12.55
2023-09-18T17:48:33.944Z,12.75
2023-09-18T17:51:00.508Z,8.93
2023-09-18T17:53:27.195Z,11.32
2023-09-18T17:55:53.671Z,10.63
2023-09-18T17:58:20.225Z,9.30
2023-09-18T18:00:49.122Z,12.45
2023-09-18T18:03:16.862Z,8.35
2023-09-18T18:05:47.000Z,10.05
2023-09-18T18:08:14.424Z,8.90
2023-09-18T18:10:44.925Z,9.00
2023-09-18T18:13:12.326Z,10.80
2023-09-18T18:15:39.603Z,7.53
2023-09-18T18:18:11.598Z,9.80
2023-09-18T18:20:38.494Z,6.95
2023-09-18T18:23:05.772Z,7.35
2023-09-18T18:25:33.962Z,9.07
2023-09-18T18:28:00.679Z,6.72
2023-09-18T18:30:27.200Z,13.35
2023-09-18T18:32:54.992Z,7.65
2023-09-18T18:35:23.535Z,5.63
2023-09-18T18:37:50.408Z,6.53
2023-09-18T18:40:18.910Z,6.63
2023-09-18T18:42:48.421Z,5.57
2023-09-18T18:45:15.813Z,5.75
2023-09-18T18:47:43.531Z,5.10
2023-09-18T18:50:11.272Z,7.93
2023-09-18T18:52:38.458Z,9.18
2023-09-18T18:55:06.021Z,6.32
2023-09-18T18:57:32.466Z,6.40
2023-09-18T18:59:58.952Z,5.43
2023-09-18T19:02:25.589Z,6.35
2023-09-18T19:04:52.092Z,7.90
2023-09-18T19:07:20.495Z,5.90
2023-09-18T19:09:46.948Z,5.63
2023-09-18T19:12:13.421Z,8.50
2023-09-18T19:14:40.798Z,8.73
2023-09-18T19:17:07.544Z,5.97
2023-09-18T19:19:34.054Z,6.97
2023-09-18T19:22:00.521Z,5.35
2023-09-18T19:24:26.992Z,6.13
2023-09-18T19:26:53.447Z,7.70
2023-09-18T19:29:21.225Z,6.85
2023-09-18T19:31:49.187Z,5.68
2023-09-18T19:34:16.517Z,6.53
2023-09-18T19:36:52.528Z,4.35
2023-09-18T19:39:25.857Z,8.77
2023-09-18T19:41:52.381Z,6.97
2023-09-18T19:44:18.996Z,7.80
2023-09-18T19:46:45.538Z,5.38
2023-09-18T19:49:12.049Z,5.30
2023-09-18T19:51:39.177Z,5.00
2023-09-18T19:54:07.055Z,6.63
2023-09-18T19:56:34.174Z,4.97
2023-09-18T19:59:01.509Z,4.38
2023-09-18T20:01:30.207Z,6.03
2023-09-18T20:03:57.027Z,6.05
2023-09-18T20:06:23.783Z,4.13
2023-09-18T20:08:50.862Z,4.47
2023-09-18T20:11:18.926Z,6.30
2023-09-18T20:13:45.452Z,5.13
2023-09-18T20:16:12.322Z,5.45
2023-09-18T20:18:39.556Z,4.07
2023-09-18T20:21:09.817Z,4.47
2023-09-18T20:23:36.485Z,6.28
2023-09-18T20:26:02.998Z,7.97
2023-09-18T20:28:30.188Z,6.85
2023-09-18T20:30:56.940Z,5.43
2023-09-18T20:33:23.644Z,7.05
2023-09-18T20:35:50.215Z,5.05
2023-09-18T20:38:16.763Z,6.28
2023-09-18T20:40:44.835Z,5.35
2023-09-18T20:43:11.466Z,5.03
2023-09-18T20:45:39.488Z,9.27
2023-09-18T20:48:07.805Z,6.53
2023-09-18T20:50:34.622Z,7.53
2023-09-18T20:53:01.291Z,7.53
2023-09-18T20:55:29.771Z,8.05
2023-09-18T20:57:56.582Z,6.68
2023-09-18T21:00:24.060Z,6.25
2023-09-18T21:02:51.609Z,6.38
2023-09-18T21:05:18.524Z,5.90
2023-09-18T21:07:45.537Z,6.43
2023-09-18T21:10:12.144Z,5.32
2023-09-18T21:12:39.463Z,6.88
2023-09-18T21:15:08.579Z,6.20
2023-09-18T21:17:35.289Z,3.47
2023-09-18T21:20:01.921Z,7.45
2023-09-18T21:22:28.403Z,6.20
2023-09-18T21:24:54.932Z,5.82
2023-09-18T21:27:22.299Z,7.70
2023-09-18T21:29:49.983Z,5.80
2023-09-18T21:32:16.586Z,6.47
2023-09-18T21:34:43.101Z,5.85
2023-09-18T21:37:09.675Z,4.78
2023-09-18T21:39:37.506Z,6.97
2023-09-18T21:42:04.625Z,7.30
2023-09-18T21:44:31.209Z,9.73
2023-09-18T21:46:57.752Z,7.63
2023-09-18T21:49:24.246Z,6.15
2023-09-18T21:51:50.737Z,6.53
2023-09-18T21:54:17.292Z,4.78
2023-09-18T21:56:43.867Z,5.45
2023-09-18T21:59:12.646Z,6.38
2023-09-18T22:01:39.270Z,5.18
2023-09-18T22:04:07.340Z,8.60
2023-09-18T22:06:34.132Z,7.07
2023-09-18T22:09:01.236Z,8.18
2023-09-18T22:11:27.933Z,7.53
2023-09-18T22:13:54.462Z,7.18
2023-09-18T22:16:21.124Z,6.55
2023-09-18T22:18:49.505Z,7.68
2023-09-18T22:21:16.547Z,5.22
2023-09-18T22:23:43.250Z,6.25
2023-09-18T22:26:09.744Z,6.32
2023-09-18T22:28:37.924Z,7.68
2023-09-18T22:31:04.703Z,5.45
2023-09-18T22:33:32.437Z,6.50
2023-09-18T22:36:01.477Z,5.07
2023-09-18T22:39:00.629Z,4.07
2023-09-18T22:41:28.849Z,8.13
2023-09-18T22:44:32.978Z,6.53
2023-09-18T22:47:37.336Z,5.32
2023-09-18T22:50:42.493Z,4.30
2023-09-18T22:53:09.185Z,4.95
2023-09-18T22:55:40.040Z,4.43
2023-09-18T22:58:06.756Z,5.93
2023-09-18T23:00:35.195Z,6.22
2023-09-18T23:03:05.607Z,6.07
2023-09-18T23:05:33.706Z,4.15
2023-09-18T23:08:03.997Z,4.28
2023-09-18T23:10:30.575Z,5.80
2023-09-18T23:12:59.957Z,5.85
2023-09-18T23:15:29.273Z,5.13
2023-09-18T23:17:57.039Z,4.65
2023-09-18T23:20:27.032Z,4.25
2023-09-18T23:22:58.458Z,4.03
2023-09-18T23:25:26.245Z,7.10
2023-09-18T23:27:53.499Z,4.85
2023-09-18T23:30:21.357Z,4.40
2023-09-18T23:33:04.407Z,5.55
2023-09-18T23:35:35.116Z,5.43
2023-09-18T23:38:04.863Z,4.32
2023-09-18T23:40:33.557Z,4.35
2023-09-18T23:43:04.876Z,4.85
2023-09-18T23:45:33.821Z,5.47
2023-09-18T23:48:11.421Z,5.43
2023-09-18T23:50:38.240Z,4.82
2023-09-18T23:53:05.220Z,4.05
2023-09-18T23:55:33.193Z,4.18
2023-09-18T23:57:59.767Z,3.45
